TimeCEST,TemperatureF,Dew PointF,Humidity,Sea Level PressureIn,VisibilityMPH,Wind Direction,Wind SpeedMPH,Gust SpeedMPH,PrecipitationIn,Events,Conditions,WindDirDegrees,DateUTC
12:00 AM,75.2,41.0,29,29.86,6.2,WNW,16.1,-,N/A,,Partly Cloudy,300,2013-06-18 22:00:00
12:30 AM,73.4,41.0,31,29.86,6.2,WNW,19.6,-,N/A,,Partly Cloudy,300,2013-06-18 22:30:00
1:00 AM,71.6,41.0,33,29.86,6.2,WNW,19.6,-,N/A,,Partly Cloudy,300,2013-06-18 23:00:00
1:30 AM,71.6,42.8,35,29.86,6.2,WNW,19.6,-,N/A,,Partly Cloudy,300,2013-06-18 23:30:00
2:00 AM,69,40,23,29.87,12,WNW,20.7,,,,Scattered Clouds,300,2013-06-19 00:00:00
2:00 AM,71.6,42.8,35,29.86,6.2,WNW,19.6,-,N/A,,Partly Cloudy,300,2013-06-19 00:00:00
2:30 AM,69.8,44.6,40,29.86,6.2,WNW,19.6,33.4,N/A,,Partly Cloudy,300,2013-06-19 00:30:00
3:00 AM,69.8,44.6,40,29.86,6.2,WNW,18.4,-,N/A,,Partly Cloudy,290,2013-06-19 01:00:00
3:30 AM,68.0,44.6,43,29.86,6.2,West,10.4,-,N/A,,Partly Cloudy,280,2013-06-19 01:30:00
4:00 AM,68.0,44.6,43,29.89,6.2,WSW,8.1,-,N/A,,Partly Cloudy,240,2013-06-19 02:00:00
4:30 AM,68.0,44.6,43,29.89,6.2,WSW,10.4,-,N/A,,Partly Cloudy,240,2013-06-19 02:30:00
5:00 AM,68.0,46.4,46,29.89,6.2,WSW,9.2,-,N/A,,Partly Cloudy,250,2013-06-19 03:00:00
5:30 AM,66.2,46.4,49,29.89,6.2,WSW,6.9,-,N/A,,Partly Cloudy,250,2013-06-19 03:30:00
6:00 AM,64.4,46.4,52,29.89,6.2,WSW,3.5,-,N/A,,Partly Cloudy,250,2013-06-19 04:00:00
6:30 AM,62.6,46.4,55,29.89,6.2,Variable,2.3,-,N/A,,Partly Cloudy,0,2013-06-19 04:30:00
7:00 AM,64.4,46.4,52,29.92,-9999.0,West,4.6,-,N/A,,Clear,260,2013-06-19 05:00:00
7:30 AM,64.4,46.4,52,29.92,-9999.0,West,5.8,-,N/A,,Clear,270,2013-06-19 05:30:00
8:00 AM,66,44,33,29.94,31,West,4.6,,,,Scattered Clouds,270,2013-06-19 06:00:00
8:00 AM,68.0,46.4,46,29.92,-9999.0,West,3.5,-,N/A,,Clear,270,2013-06-19 06:00:00
8:30 AM,69.8,46.4,43,29.92,-9999.0,WSW,4.6,-,N/A,,Clear,250,2013-06-19 06:30:00
9:00 AM,71.6,46.4,41,29.95,6.2,West,9.2,-,N/A,,Partly Cloudy,260,2013-06-19 07:00:00
9:30 AM,73.4,46.4,38,29.95,6.2,West,10.4,-,N/A,,Partly Cloudy,260,2013-06-19 07:30:00
10:00 AM,75.2,46.4,36,29.95,6.2,WNW,10.4,-,N/A,,Partly Cloudy,290,2013-06-19 08:00:00
10:30 AM,75.2,46.4,36,29.95,6.2,West,6.9,-,N/A,,Partly Cloudy,260,2013-06-19 08:30:00
11:00 AM,77.0,46.4,34,29.95,6.2,South,4.6,-,N/A,,Partly Cloudy,190,2013-06-19 09:00:00
11:30 AM,77.0,46.4,34,29.95,6.2,Variable,4.6,-,N/A,,Partly Cloudy,0,2013-06-19 09:30:00
12:00 PM,78.8,48.2,34,29.95,6.2,SW,6.9,-,N/A,,Partly Cloudy,230,2013-06-19 10:00:00
12:30 PM,77.0,48.2,36,29.95,6.2,South,8.1,-,N/A,,Scattered Clouds,180,2013-06-19 10:30:00
1:00 PM,75.2,50.0,41,29.95,6.2,South,10.4,-,N/A,,Scattered Clouds,170,2013-06-19 11:00:00
1:30 PM,75.2,51.8,44,29.95,6.2,South,11.5,-,N/A,,Scattered Clouds,170,2013-06-19 11:30:00
2:00 PM,77,45,22,29.95,22,SSE,12.7,,,,Partly Cloudy,160,2013-06-19 12:00:00
2:00 PM,77.0,48.2,36,29.95,6.2,SSE,12.7,-,N/A,,Scattered Clouds,160,2013-06-19 12:00:00
2:30 PM,75.2,48.2,38,29.95,6.2,SSE,13.8,-,N/A,,Scattered Clouds,160,2013-06-19 12:30:00
3:00 PM,75.2,50.0,41,29.95,6.2,South,16.1,-,N/A,,Scattered Clouds,170,2013-06-19 13:00:00
3:30 PM,75.2,48.2,38,29.95,6.2,South,12.7,-,N/A,,Scattered Clouds,170,2013-06-19 13:30:00
4:00 PM,75.2,48.2,38,29.95,6.2,South,11.5,-,N/A,,Scattered Clouds,170,2013-06-19 14:00:00
4:30 PM,77.0,48.2,36,29.95,6.2,South,11.5,-,N/A,,Scattered Clouds,180,2013-06-19 14:30:00
5:00 PM,78.8,48.2,34,29.95,6.2,South,12.7,-,N/A,,Scattered Clouds,170,2013-06-19 15:00:00
5:30 PM,78.8,50.0,36,29.95,6.2,SSE,10.4,-,N/A,,Scattered Clouds,160,2013-06-19 15:30:00
6:00 PM,75.2,53.6,47,29.95,6.2,SSE,11.5,-,N/A,,Scattered Clouds,160,2013-06-19 16:00:00
6:30 PM,77.0,48.2,36,29.95,6.2,South,11.5,-,N/A,,Partly Cloudy,180,2013-06-19 16:30:00
7:00 PM,75.2,50.0,41,29.95,6.2,South,11.5,-,N/A,,Partly Cloudy,170,2013-06-19 17:00:00
7:30 PM,73.4,53.6,50,29.95,6.2,SSE,8.1,-,N/A,,Partly Cloudy,160,2013-06-19 17:30:00
8:00 PM,73,50,34,29.97,22,SSE,5.8,,,,Scattered Clouds,160,2013-06-19 18:00:00
8:00 PM,73.4,53.6,50,29.98,6.2,SSE,4.6,-,N/A,,Partly Cloudy,160,2013-06-19 18:00:00
8:30 PM,73.4,55.4,53,29.98,6.2,SSE,4.6,-,N/A,,Partly Cloudy,160,2013-06-19 18:30:00
9:00 PM,73.4,55.4,53,29.98,6.2,South,3.5,-,N/A,,Partly Cloudy,170,2013-06-19 19:00:00
9:30 PM,73.4,53.6,50,29.98,6.2,Variable,1.2,-,N/A,,Partly Cloudy,0,2013-06-19 19:30:00
10:00 PM,71.6,57.2,60,29.98,6.2,Variable,2.3,-,N/A,,Partly Cloudy,0,2013-06-19 20:00:00
10:30 PM,71.6,57.2,60,29.98,-9999.0,North,3.5,-,N/A,,Clear,10,2013-06-19 20:30:00
11:00 PM,69.8,57.2,64,30.01,-9999.0,Calm,Calm,-,N/A,,Clear,0,2013-06-19 21:00:00
11:30 PM,69.8,57.2,64,30.01,-9999.0,Variable,1.2,-,N/A,,Clear,0,2013-06-19 21:30:00